Time;durP1;ratioP1;P1;durP2;ratioP2;P2;SDS_P1;SDS_P2;PMS_P1;PMS_P2;Temp;Humidity;BMP_temperature;BMP_pressure;BME280_temperature;BME280_humidity;BME280_pressure;Samples;Min_cycle;Max_cycle;Signal;HPM_P1;HPM_P2
2021/07/26 00:01:16;;;;;;;6.97;4.45;;;19.80;80.80;;;;;;5052241;28;20100;-36
2021/07/26 00:03:42;;;;;;;6.90;4.45;;;19.70;81.50;;;;;;5052567;28;20103;-36
2021/07/26 00:06:09;;;;;;;6.53;4.53;;;19.70;81.60;;;;;;5052437;28;20108;-36
2021/07/26 00:08:36;;;;;;;8.18;4.47;;;19.70;81.30;;;;;;5050972;28;20037;-36
2021/07/26 00:11:03;;;;;;;7.65;4.63;;;19.60;81.60;;;;;;5052266;28;20033;-36
2021/07/26 00:13:29;;;;;;;10.88;5.07;;;19.60;81.80;;;;;;5052345;28;20075;-37
2021/07/26 00:15:55;;;;;;;6.97;4.95;;;19.50;81.50;;;;;;5052356;28;20024;-36
2021/07/26 00:18:21;;;;;;;9.00;5.07;;;19.80;81.20;;;;;;5052333;28;20040;-36
2021/07/26 00:20:46;;;;;;;7.88;4.78;;;19.80;80.70;;;;;;5052253;28;20025;-36
2021/07/26 00:23:12;;;;;;;6.40;4.57;;;19.70;81.20;;;;;;5052463;28;20029;-36
2021/07/26 00:25:38;;;;;;;6.95;4.80;;;19.40;81.80;;;;;;5052491;28;20396;-36
2021/07/26 00:28:04;;;;;;;5.75;4.47;;;19.40;82.20;;;;;;5052411;28;20587;-36
2021/07/26 00:30:29;;;;;;;11.05;6.10;;;19.40;82.40;;;;;;5051943;28;20135;-36
2021/07/26 00:32:55;;;;;;;6.57;4.72;;;19.30;82.90;;;;;;5052137;28;20053;-36
2021/07/26 00:35:20;;;;;;;6.97;4.90;;;19.30;83.10;;;;;;5052725;28;20025;-36
2021/07/26 00:37:46;;;;;;;9.18;4.85;;;19.30;83.20;;;;;;5053723;28;20021;-36
2021/07/26 00:40:12;;;;;;;12.38;5.85;;;19.30;83.20;;;;;;5055821;28;20029;-36
2021/07/26 00:42:38;;;;;;;8.90;5.75;;;19.30;83.10;;;;;;5055767;28;20024;-36
2021/07/26 00:45:05;;;;;;;8.98;5.05;;;19.30;83.50;;;;;;5055777;28;20041;-36
2021/07/26 00:47:31;;;;;;;10.15;5.60;;;19.10;83.90;;;;;;5055685;28;20032;-36
2021/07/26 00:49:57;;;;;;;7.82;5.05;;;19.10;84.10;;;;;;5055490;28;20025;-36
2021/07/26 00:52:24;;;;;;;4.72;4.15;;;19.00;84.00;;;;;;5055503;28;20025;-37
2021/07/26 00:54:50;;;;;;;6.25;4.60;;;19.00;83.90;;;;;;5055755;28;20369;-36
2021/07/26 00:57:15;;;;;;;8.57;4.32;;;19.10;83.90;;;;;;5054103;28;20028;-36
2021/07/26 00:59:41;;;;;;;8.55;4.70;;;19.00;83.80;;;;;;5055159;28;20381;-37
2021/07/26 01:02:07;;;;;;;9.30;5.30;;;19.00;83.70;;;;;;5055099;28;20295;-37
2021/07/26 01:04:33;;;;;;;6.53;4.78;;;19.10;83.20;;;;;;5055037;28;20139;-36
2021/07/26 01:06:58;;;;;;;6.07;4.53;;;19.10;83.40;;;;;;5053787;28;20120;-36
2021/07/26 01:09:24;;;;;;;6.90;4.35;;;19.10;83.30;;;;;;5054934;28;20021;-36
2021/07/26 01:11:50;;;;;;;8.50;4.82;;;19.10;83.00;;;;;;5055125;28;20048;-37
2021/07/26 01:14:16;;;;;;;5.63;4.43;;;19.10;83.00;;;;;;5054874;28;20100;-36
2021/07/26 01:16:43;;;;;;;10.40;5.07;;;19.10;82.90;;;;;;5055072;28;20025;-37
2021/07/26 01:19:09;;;;;;;7.85;4.47;;;19.00;82.90;;;;;;5055128;28;20501;-36
2021/07/26 01:21:34;;;;;;;5.82;4.45;;;19.00;83.30;;;;;;5054777;28;20098;-36
2021/07/26 01:24:01;;;;;;;5.05;3.70;;;18.80;83.30;;;;;;5054750;28;20086;-37
2021/07/26 01:26:27;;;;;;;10.13;4.30;;;18.80;83.00;;;;;;5054733;28;20021;-36
2021/07/26 01:29:05;;;;;;;6.50;3.88;;;18.80;82.50;;;;;;5054857;28;20362;-37
2021/07/26 01:31:31;;;;;;;8.18;3.88;;;19.10;81.40;;;;;;5054775;28;20044;-36
2021/07/26 01:33:57;;;;;;;8.40;3.75;;;19.10;80.60;;;;;;5054856;28;20025;-37
2021/07/26 01:36:23;;;;;;;5.80;3.85;;;19.20;80.40;;;;;;5054547;28;20104;-36
2021/07/26 01:38:53;;;;;;;5.28;2.92;;;19.20;79.90;;;;;;5054488;28;20122;-37
2021/07/26 01:41:21;;;;;;;7.03;3.17;;;19.10;80.00;;;;;;5054659;28;20505;-36
2021/07/26 01:44:03;;;;;;;5.00;3.65;;;19.10;80.10;;;;;;5053055;28;20616;-36
2021/07/26 01:47:03;;;;;;;6.80;3.28;;;19.20;79.80;;;;;;5054307;28;20043;-36
2021/07/26 01:49:47;;;;;;;4.55;3.50;;;19.10;80.00;;;;;;5052989;28;20087;-36
2021/07/26 01:52:13;;;;;;;4.85;3.50;;;19.10;80.00;;;;;;5053564;28;20028;-37
2021/07/26 01:54:39;;;;;;;7.43;3.42;;;19.10;80.40;;;;;;5054116;28;20053;-36
2021/07/26 01:57:05;;;;;;;6.40;3.38;;;18.90;80.90;;;;;;5054452;28;20060;-36
2021/07/26 01:59:31;;;;;;;5.00;3.30;;;18.80;81.00;;;;;;5052941;28;20021;-37
2021/07/26 02:01:57;;;;;;;3.70;2.88;;;18.80;81.20;;;;;;5054133;28;20025;-37
2021/07/26 02:04:23;;;;;;;4.10;3.33;;;18.80;81.10;;;;;;5054005;28;20027;-37
2021/07/26 02:06:49;;;;;;;6.50;3.50;;;18.80;80.80;;;;;;5054251;28;20027;-37
2021/07/26 02:09:14;;;;;;;6.03;3.53;;;18.80;81.30;;;;;;5053955;28;20104;-37
2021/07/26 02:11:40;;;;;;;5.53;4.05;;;18.90;81.10;;;;;;5053842;28;20029;-37
2021/07/26 02:14:09;;;;;;;6.88;3.58;;;19.00;80.80;;;;;;5054317;28;20059;-37
2021/07/26 02:16:39;;;;;;;4.57;3.55;;;18.90;80.80;;;;;;5054042;28;20461;-36
2021/07/26 02:19:06;;;;;;;4.68;3.72;;;18.80;81.60;;;;;;5053798;28;20037;-36
2021/07/26 02:21:32;;;;;;;5.53;3.50;;;18.70;82.20;;;;;;5053687;28;20047;-37
2021/07/26 02:23:58;;;;;;;4.57;3.83;;;18.70;82.70;;;;;;5053948;28;20029;-37
2021/07/26 02:26:23;;;;;;;7.60;4.28;;;18.60;82.80;;;;;;5053684;28;20043;-37
2021/07/26 02:28:49;;;;;;;8.00;4.70;;;18.60;83.30;;;;;;5052331;28;20033;-36
2021/07/26 02:31:15;;;;;;;9.98;4.45;;;18.50;83.60;;;;;;5053229;28;20088;-36
2021/07/26 02:33:40;;;;;;;5.97;3.92;;;18.40;84.00;;;;;;5053804;28;20112;-37
2021/07/26 02:36:06;;;;;;;7.00;4.75;;;18.40;84.00;;;;;;5053486;28;20100;-36
2021/07/26 02:38:32;;;;;;;7.05;4.32;;;18.40;84.10;;;;;;5053758;28;20028;-37
2021/07/26 02:40:58;;;;;;;9.10;4.60;;;18.40;84.30;;;;;;5052604;28;20025;-37
2021/07/26 02:43:23;;;;;;;6.80;4.45;;;18.40;84.60;;;;;;5054080;28;20086;-36
2021/07/26 02:45:49;;;;;;;7.38;4.68;;;18.40;84.30;;;;;;5053524;28;20039;-37
2021/07/26 02:48:15;;;;;;;6.40;4.57;;;18.30;84.40;;;;;;5053796;28;20033;-36
2021/07/26 02:50:41;;;;;;;6.97;4.47;;;18.30;84.60;;;;;;5053657;28;20028;-36
2021/07/26 02:53:06;;;;;;;7.35;4.28;;;18.40;84.20;;;;;;5052380;28;20036;-37
2021/07/26 02:55:32;;;;;;;6.10;4.68;;;18.30;84.60;;;;;;5053926;28;20378;-37
2021/07/26 02:57:58;;;;;;;6.32;4.82;;;18.20;84.90;;;;;;5053320;28;20068;-37
2021/07/26 03:00:23;;;;;;;5.25;4.30;;;18.20;85.10;;;;;;5053078;28;20029;-36
2021/07/26 03:02:49;;;;;;;7.93;3.80;;;18.20;84.70;;;;;;5053781;28;20033;-37
2021/07/26 03:05:15;;;;;;;5.95;4.45;;;18.20;84.90;;;;;;5053307;28;20155;-37
2021/07/26 03:07:40;;;;;;;8.73;3.75;;;18.20;85.00;;;;;;5053582;28;20021;-37
2021/07/26 03:10:06;;;;;;;7.50;4.50;;;18.20;85.00;;;;;;5052914;28;20031;-37
2021/07/26 03:12:32;;;;;;;8.70;3.90;;;18.20;85.10;;;;;;5052947;28;20025;-37
2021/07/26 03:14:58;;;;;;;8.27;4.03;;;18.10;85.00;;;;;;5053283;28;20036;-37
2021/07/26 03:17:25;;;;;;;5.63;3.97;;;18.20;84.70;;;;;;5052982;28;20453;-37
2021/07/26 03:19:57;;;;;;;5.50;4.53;;;18.10;84.90;;;;;;5051595;28;20033;-37
2021/07/26 03:22:47;;;;;;;8.63;3.97;;;18.10;84.80;;;;;;5052993;28;20119;-36
2021/07/26 03:25:13;;;;;;;6.68;4.90;;;18.10;84.90;;;;;;5052890;28;20044;-36
2021/07/26 03:27:39;;;;;;;4.88;3.80;;;18.10;84.90;;;;;;5052829;28;20029;-37
2021/07/26 03:30:05;;;;;;;6.43;3.90;;;18.00;84.80;;;;;;5052404;28;20516;-37
2021/07/26 03:32:31;;;;;;;4.32;3.25;;;18.10;84.50;;;;;;5053039;28;20032;-37
2021/07/26 03:34:57;;;;;;;8.25;4.25;;;18.10;84.60;;;;;;5052754;28;20025;-37
2021/07/26 03:37:22;;;;;;;8.88;4.07;;;18.20;84.50;;;;;;5052720;28;20096;-37
2021/07/26 03:39:48;;;;;;;6.60;4.25;;;18.10;84.40;;;;;;5053036;28;20391;-37
2021/07/26 03:42:13;;;;;;;5.35;4.13;;;18.10;84.40;;;;;;5052760;28;20067;-37
2021/07/26 03:44:39;;;;;;;7.47;5.03;;;18.00;84.80;;;;;;5052699;28;20401;-37
2021/07/26 03:47:05;;;;;;;5.18;3.67;;;17.90;85.30;;;;;;5052727;28;20068;-37
2021/07/26 03:49:30;;;;;;;6.20;4.18;;;18.00;84.80;;;;;;5053396;28;20021;-37
2021/07/26 03:51:56;;;;;;;6.72;4.30;;;18.00;84.90;;;;;;5052922;28;20074;-36
2021/07/26 03:54:21;;;;;;;5.13;4.43;;;17.90;85.30;;;;;;5052749;28;20358;-36
2021/07/26 03:56:47;;;;;;;8.15;4.35;;;17.90;85.20;;;;;;5051595;28;20017;-36
2021/07/26 03:59:12;;;;;;;6.53;4.00;;;18.00;84.70;;;;;;5052818;28;20028;-37
2021/07/26 04:01:38;;;;;;;14.15;4.53;;;17.90;84.70;;;;;;5052626;28;20044;-36
2021/07/26 04:04:04;;;;;;;6.35;4.50;;;17.80;84.80;;;;;;5052556;28;20021;-37
2021/07/26 04:06:30;;;;;;;9.23;3.83;;;17.80;85.00;;;;;;5052805;28;20108;-37
2021/07/26 04:08:55;;;;;;;5.70;4.70;;;17.80;85.00;;;;;;5052586;28;20522;-36
2021/07/26 04:11:25;;;;;;;7.10;3.88;;;17.70;85.00;;;;;;5052808;28;20034;-36
2021/07/26 04:14:01;;;;;;;6.57;4.68;;;17.70;85.30;;;;;;5056329;28;20108;-36
2021/07/26 04:16:27;;;;;;;5.50;4.20;;;17.80;85.10;;;;;;5056640;28;20043;-36
2021/07/26 04:18:53;;;;;;;6.85;4.57;;;17.80;84.80;;;;;;5056644;28;20108;-36
2021/07/26 04:21:27;;;;;;;8.13;4.10;;;17.90;84.70;;;;;;5055061;28;20112;-36
2021/07/26 04:23:52;;;;;;;5.80;4.28;;;17.90;84.50;;;;;;5056768;28;20147;-37
2021/07/26 04:26:18;;;;;;;6.82;4.82;;;17.90;84.60;;;;;;5056716;28;20057;-36
2021/07/26 04:28:43;;;;;;;5.22;4.70;;;18.00;84.50;;;;;;5056222;28;20158;-36
2021/07/26 04:31:09;;;;;;;7.43;4.50;;;18.00;84.40;;;;;;5055935;28;20041;-36
2021/07/26 04:33:35;;;;;;;7.95;4.18;;;18.00;84.50;;;;;;5056082;28;20472;-36
2021/07/26 04:36:01;;;;;;;6.57;4.30;;;18.00;84.40;;;;;;5056029;28;20024;-36
2021/07/26 04:38:27;;;;;;;5.57;4.50;;;18.00;84.50;;;;;;5056191;28;20326;-36
2021/07/26 04:40:53;;;;;;;7.53;4.10;;;18.00;84.70;;;;;;5055923;28;20029;-36
2021/07/26 04:43:18;;;;;;;13.13;4.25;;;18.00;84.80;;;;;;5056281;28;20099;-37
2021/07/26 04:45:44;;;;;;;7.50;4.18;;;18.20;84.20;;;;;;5055787;28;20059;-37
2021/07/26 04:48:09;;;;;;;7.45;4.82;;;18.20;84.20;;;;;;5056135;28;20033;-37
2021/07/26 04:50:35;;;;;;;5.25;4.28;;;18.20;84.10;;;;;;5055810;28;20040;-37
2021/07/26 04:53:00;;;;;;;6.97;4.10;;;18.10;84.50;;;;;;5055893;28;20428;-37
2021/07/26 04:55:26;;;;;;;6.78;4.30;;;18.20;84.60;;;;;;5055768;28;20021;-37
2021/07/26 04:57:52;;;;;;;9.18;4.28;;;18.10;84.40;;;;;;5056050;28;20522;-36
2021/07/26 05:00:18;;;;;;;6.85;4.35;;;18.20;84.50;;;;;;5054447;28;20025;-36
2021/07/26 05:02:43;;;;;;;6.85;4.78;;;18.30;84.10;;;;;;5055762;28;20025;-37
2021/07/26 05:05:09;;;;;;;9.45;4.53;;;18.30;84.00;;;;;;5055234;28;20116;-36
2021/07/26 05:07:35;;;;;;;8.90;4.38;;;18.30;84.00;;;;;;5054670;28;20036;-35
2021/07/26 05:10:01;;;;;;;11.55;5.30;;;18.40;83.60;;;;;;5055011;28;20068;-36
2021/07/26 05:12:27;;;;;;;6.88;5.25;;;18.50;83.30;;;;;;5055015;28;20430;-36
2021/07/26 05:14:53;;;;;;;5.93;3.90;;;18.50;83.30;;;;;;5055368;28;20158;-36
2021/07/26 05:17:26;;;;;;;9.18;4.68;;;18.50;83.20;;;;;;5053553;28;20021;-36
2021/07/26 05:19:53;;;;;;;5.82;3.70;;;18.60;83.00;;;;;;5053576;28;20051;-36
2021/07/26 05:22:19;;;;;;;8.38;3.88;;;18.70;82.70;;;;;;5054673;28;20029;-36
2021/07/26 05:24:45;;;;;;;10.27;4.25;;;18.70;82.10;;;;;;5054380;28;20491;-36
2021/07/26 05:27:11;;;;;;;7.82;3.65;;;18.80;81.90;;;;;;5054288;28;20021;-36
2021/07/26 05:29:37;;;;;;;6.35;3.67;;;18.80;81.50;;;;;;5052783;28;20547;-36
2021/07/26 05:32:03;;;;;;;6.10;4.30;;;19.00;81.00;;;;;;5053269;28;20117;-36
2021/07/26 05:34:29;;;;;;;5.60;4.03;;;19.10;81.10;;;;;;5054330;28;20028;-37
2021/07/26 05:36:55;;;;;;;8.93;4.35;;;19.30;80.10;;;;;;5053092;28;20029;-36
2021/07/26 05:39:25;;;;;;;7.82;4.03;;;19.40;79.80;;;;;;5054560;28;20017;-36
2021/07/26 05:41:57;;;;;;;4.93;3.92;;;19.50;79.60;;;;;;5054216;28;20033;-36
2021/07/26 05:44:23;;;;;;;5.07;4.10;;;19.60;79.70;;;;;;5054337;28;20153;-40
2021/07/26 05:46:48;;;;;;;5.55;3.58;;;19.70;79.10;;;;;;5054267;28;20038;-36
2021/07/26 05:49:14;;;;;;;5.45;3.28;;;19.80;78.90;;;;;;5054168;28;20039;-36
2021/07/26 05:51:40;;;;;;;8.10;4.22;;;19.90;78.20;;;;;;5054021;28;20032;-37
2021/07/26 05:54:05;;;;;;;6.03;4.25;;;20.00;77.80;;;;;;5054354;28;20048;-37
2021/07/26 05:56:37;;;;;;;5.43;3.85;;;20.10;77.70;;;;;;5054014;28;20033;-38
2021/07/26 05:59:03;;;;;;;9.55;3.92;;;20.20;77.10;;;;;;5054180;28;20075;-38
2021/07/26 06:01:47;;;;;;;4.63;3.45;;;20.30;76.60;;;;;;5054105;28;20377;-35
2021/07/26 06:04:17;;;;;;;6.57;4.60;;;20.40;75.90;;;;;;5053834;28;20033;-36
2021/07/26 06:06:47;;;;;;;4.88;3.08;;;20.40;75.90;;;;;;5054112;28;20453;-37
2021/07/26 06:09:13;;;;;;;4.55;3.30;;;20.60;75.20;;;;;;5054313;28;20119;-38
2021/07/26 06:11:41;;;;;;;6.05;3.33;;;20.60;74.90;;;;;;5053943;28;20021;-37
2021/07/26 06:14:08;;;;;;;13.63;3.35;;;20.70;74.70;;;;;;5052269;28;20024;-37
2021/07/26 06:16:34;;;;;;;4.95;2.92;;;20.80;74.30;;;;;;5054071;28;20504;-37
2021/07/26 06:19:01;;;;;;;5.95;2.95;;;20.80;73.40;;;;;;5053425;28;20115;-37
2021/07/26 06:21:27;;;;;;;4.10;3.33;;;20.90;73.70;;;;;;5051875;28;20029;-37
2021/07/26 06:23:52;;;;;;;4.78;2.97;;;20.90;74.20;;;;;;5053522;28;20143;-37
2021/07/26 06:26:18;;;;;;;7.85;3.15;;;21.00;73.90;;;;;;5053707;28;20029;-37
2021/07/26 06:28:44;;;;;;;6.28;2.80;;;21.10;73.60;;;;;;5053595;28;20090;-37
2021/07/26 06:31:10;;;;;;;7.43;3.25;;;21.00;73.80;;;;;;5053310;28;20083;-37
2021/07/26 06:33:36;;;;;;;5.75;2.75;;;21.00;73.90;;;;;;5053773;28;20045;-37
2021/07/26 06:36:03;;;;;;;3.40;2.88;;;21.00;74.70;;;;;;5053177;28;20048;-37
2021/07/26 06:38:29;;;;;;;3.60;3.17;;;21.20;73.40;;;;;;5053565;28;20523;-37
2021/07/26 06:40:55;;;;;;;5.07;3.10;;;21.00;74.20;;;;;;5053627;28;20025;-37
2021/07/26 06:43:20;;;;;;;5.07;2.80;;;21.00;73.90;;;;;;5053534;28;20058;-37
2021/07/26 06:45:46;;;;;;;5.05;2.83;;;20.90;74.10;;;;;;5053266;28;20362;-37
2021/07/26 06:48:12;;;;;;;5.00;2.65;;;21.00;73.90;;;;;;5053173;28;20033;-37
2021/07/26 06:50:39;;;;;;;4.28;3.08;;;21.10;73.60;;;;;;5053208;28;20500;-38
2021/07/26 06:53:07;;;;;;;5.47;2.38;;;21.20;73.50;;;;;;5053091;28;20025;-36
2021/07/26 06:55:36;;;;;;;4.75;2.95;;;21.50;72.10;;;;;;5052132;28;20355;-37
2021/07/26 06:58:03;;;;;;;6.63;3.17;;;21.50;71.90;;;;;;5052623;28;20025;-37
2021/07/26 07:00:28;;;;;;;3.50;2.30;;;21.60;71.40;;;;;;5052693;28;20067;-37
2021/07/26 07:02:54;;;;;;;4.30;2.65;;;21.60;70.60;;;;;;5053074;28;20033;-36
2021/07/26 07:05:20;;;;;;;3.85;2.40;;;21.60;70.80;;;;;;5053816;28;20025;-37
2021/07/26 07:07:45;;;;;;;8.50;6.40;;;21.70;69.80;;;;;;5053154;28;20098;-37
2021/07/26 07:10:11;;;;;;;2.58;2.03;;;21.70;69.10;;;;;;5052923;28;20496;-37
2021/07/26 07:12:37;;;;;;;3.00;2.70;;;21.70;68.10;;;;;;5052873;28;20048;-37
2021/07/26 07:15:03;;;;;;;3.38;2.60;;;22.00;67.80;;;;;;5052600;28;20025;-38
2021/07/26 07:17:28;;;;;;;3.38;1.95;;;21.80;67.90;;;;;;5052442;28;20083;-37
2021/07/26 07:19:54;;;;;;;3.97;2.00;;;21.70;67.50;;;;;;5052545;28;20031;-37
2021/07/26 07:22:20;;;;;;;3.95;2.10;;;21.60;68.00;;;;;;5052254;28;20036;-37
2021/07/26 07:24:46;;;;;;;2.80;2.28;;;21.80;67.40;;;;;;5053064;28;20055;-37
2021/07/26 07:27:12;;;;;;;2.63;1.95;;;21.80;67.40;;;;;;5052273;28;20032;-37
2021/07/26 07:29:38;;;;;;;3.78;2.63;;;21.90;67.30;;;;;;5051647;28;20045;-37
2021/07/26 07:32:04;;;;;;;3.00;2.65;;;22.10;65.80;;;;;;5052750;28;20033;-37
2021/07/26 07:34:30;;;;;;;6.22;2.45;;;22.00;65.70;;;;;;5052479;28;20350;-37
2021/07/26 07:36:58;;;;;;;3.58;1.95;;;21.80;67.40;;;;;;5052421;28;20029;-37
2021/07/26 07:39:25;;;;;;;3.60;2.25;;;22.10;66.90;;;;;;5050858;28;20018;-37
2021/07/26 07:41:51;;;;;;;4.85;2.50;;;22.30;66.20;;;;;;5052337;28;20388;-37
2021/07/26 07:44:17;;;;;;;4.00;2.33;;;22.30;65.60;;;;;;5052190;28;20032;-37
2021/07/26 07:46:42;;;;;;;2.85;1.88;;;22.40;64.90;;;;;;5053326;28;20098;-37
2021/07/26 07:49:08;;;;;;;5.15;2.00;;;22.40;64.30;;;;;;5056499;28;20484;-37
2021/07/26 07:51:34;;;;;;;3.22;1.80;;;23.00;63.10;;;;;;5056347;28;20100;-37
2021/07/26 07:54:00;;;;;;;2.70;1.90;;;23.00;63.00;;;;;;5056218;28;20469;-37
2021/07/26 07:56:26;;;;;;;3.15;2.03;;;22.40;64.10;;;;;;5056738;28;20477;-38
2021/07/26 07:58:54;;;;;;;6.65;2.35;;;22.40;64.80;;;;;;5056745;28;20048;-36
2021/07/26 08:01:31;;;;;;;3.00;2.60;;;22.70;63.50;;;;;;5056274;28;20107;-38
2021/07/26 08:03:57;;;;;;;3.80;3.25;;;23.10;63.00;;;;;;5056019;28;20040;-37
2021/07/26 08:06:23;;;;;;;6.25;2.33;;;23.20;62.60;;;;;;5055924;28;20037;-36
2021/07/26 08:08:49;;;;;;;4.93;2.15;;;23.20;62.40;;;;;;5056500;28;20031;-38
2021/07/26 08:11:14;;;;;;;4.10;2.70;;;23.60;61.00;;;;;;5057027;28;20033;-37
2021/07/26 08:13:40;;;;;;;6.32;2.83;;;22.80;63.10;;;;;;5056141;28;20021;-36
2021/07/26 08:16:06;;;;;;;7.97;2.70;;;22.60;64.10;;;;;;5056470;28;20028;-37
2021/07/26 08:18:32;;;;;;;11.57;4.22;;;23.10;62.90;;;;;;5056348;28;20032;-37
2021/07/26 08:20:59;;;;;;;4.80;2.95;;;23.00;63.00;;;;;;5055888;28;20418;-36
2021/07/26 08:23:25;;;;;;;11.48;2.55;;;23.30;62.20;;;;;;5055043;28;20203;-37
2021/07/26 08:25:51;;;;;;;3.80;2.42;;;23.40;61.60;;;;;;5056278;28;20035;-37
2021/07/26 08:28:19;;;;;;;4.57;2.53;;;23.40;61.40;;;;;;5056091;28;20027;-37
2021/07/26 08:30:48;;;;;;;5.22;2.95;;;23.40;61.50;;;;;;5055962;28;20404;-37
2021/07/26 08:33:14;;;;;;;3.78;2.60;;;23.70;60.80;;;;;;5056564;28;20052;-37
2021/07/26 08:35:40;;;;;;;6.28;2.40;;;24.20;59.50;;;;;;5056152;28;20469;-38
2021/07/26 08:38:06;;;;;;;8.80;2.60;;;24.30;58.10;;;;;;5055565;28;20102;-36
2021/07/26 08:40:34;;;;;;;6.40;2.92;;;23.60;60.50;;;;;;5055385;28;20021;-37
2021/07/26 08:43:04;;;;;;;4.03;2.42;;;23.20;62.30;;;;;;5055779;28;20150;-36
2021/07/26 08:45:33;;;;;;;;;;;22.80;63.30;;;;;;5055805;28;20461;-36
2021/07/26 08:48:06;;;;;;;3.75;2.92;;;23.00;63.40;;;;;;5055836;28;19905;-43
2021/07/26 08:50:37;;;;;;;3.08;2.60;;;23.20;62.70;;;;;;5054717;28;20537;-38
2021/07/26 08:53:07;;;;;;;4.63;2.65;;;23.00;63.40;;;;;;5056619;28;20067;-35
2021/07/26 08:55:34;;;;;;;4.43;2.47;;;23.50;61.60;;;;;;5055355;28;20083;-36
2021/07/26 08:57:59;;;;;;;3.35;2.78;;;24.10;60.00;;;;;;5054510;28;20207;-36
2021/07/26 09:00:25;;;;;;;5.85;2.90;;;23.70;61.60;;;;;;5055692;28;20112;-36
2021/07/26 09:02:51;;;;;;;6.13;2.95;;;24.20;60.40;;;;;;5055335;28;20051;-36
2021/07/26 09:05:19;;;;;;;4.45;2.72;;;23.90;60.70;;;;;;5055551;28;20036;-36
2021/07/26 09:07:46;;;;;;;6.57;2.83;;;24.00;60.40;;;;;;5055478;28;20072;-36
2021/07/26 09:10:23;;;;;;;5.65;3.40;;;23.90;60.80;;;;;;5055573;28;20029;-36
2021/07/26 09:12:54;;;;;;;3.75;2.25;;;24.00;60.10;;;;;;5055415;28;20025;-36
2021/07/26 09:15:23;;;;;;;3.85;2.65;;;25.00;57.60;;;;;;5055327;28;20103;-38
2021/07/26 09:17:50;;;;;;;3.47;2.13;;;25.30;56.30;;;;;;5056293;28;20025;-37
2021/07/26 09:20:16;;;;;;;5.10;2.95;;;24.20;58.60;;;;;;5054961;28;20047;-37
2021/07/26 09:22:43;;;;;;;4.53;2.63;;;23.80;59.50;;;;;;5054620;28;20033;-37
2021/07/26 09:25:20;;;;;;;2.95;2.58;;;23.80;59.10;;;;;;5055092;28;20472;-36
2021/07/26 09:28:14;;;;;;;6.30;2.60;;;23.60;59.60;;;;;;5055234;28;20025;-37
2021/07/26 09:30:43;;;;;;;3.40;2.30;;;24.20;57.70;;;;;;5054791;28;20095;-36
2021/07/26 09:33:28;;;;;;;3.05;2.50;;;24.80;56.30;;;;;;5054668;28;20025;-38
2021/07/26 09:36:14;;;;;;;2.97;2.45;;;24.40;56.90;;;;;;5054831;28;20067;-39
2021/07/26 09:38:52;;;;;;;2.78;2.10;;;25.20;54.20;;;;;;5055077;28;20358;-37
2021/07/26 09:41:50;;;;;;;2.85;2.42;;;25.00;54.90;;;;;;5054637;28;20025;-37
2021/07/26 09:44:24;;;;;;;4.05;2.33;;;26.00;51.60;;;;;;5054391;28;20025;-37
2021/07/26 09:46:51;;;;;;;4.28;2.42;;;26.20;51.10;;;;;;5054380;28;20219;-38
2021/07/26 09:49:18;;;;;;;3.58;2.90;;;26.40;51.30;;;;;;5053289;28;20644;-37
2021/07/26 09:52:03;;;;;;;3.83;2.80;;;26.00;51.50;;;;;;5054444;28;20476;-36
2021/07/26 09:54:55;;;;;;;3.70;2.78;;;25.20;53.30;;;;;;5054642;28;20021;-36
2021/07/26 09:57:23;;;;;;;3.30;3.00;;;24.50;54.40;;;;;;5054765;28;20036;-37
2021/07/26 09:59:49;;;;;;;5.93;3.17;;;23.90;56.20;;;;;;5054751;28;20358;-36
2021/07/26 10:02:18;;;;;;;4.40;2.95;;;24.70;55.00;;;;;;5054136;28;20487;-38
2021/07/26 10:04:45;;;;;;;5.90;2.70;;;25.30;53.20;;;;;;5053905;28;20093;-36
2021/07/26 10:07:15;;;;;;;6.13;2.92;;;25.30;52.70;;;;;;5054119;28;20021;-36
2021/07/26 10:09:44;;;;;;;;;;;25.50;51.80;;;;;;5051817;28;20025;-38
2021/07/26 10:12:13;;;;;;;3.90;2.60;;;26.40;50.50;;;;;;5054620;28;19908;-37
2021/07/26 10:14:41;;;;;;;6.80;2.75;;;25.30;52.80;;;;;;5053992;28;20381;-38
2021/07/26 10:17:08;;;;;;;4.03;2.63;;;26.00;51.60;;;;;;5052701;28;20025;-38
2021/07/26 10:19:34;;;;;;;4.88;2.63;;;26.30;50.60;;;;;;5054252;28;20028;-37
2021/07/26 10:22:02;;;;;;;3.40;2.75;;;26.60;49.80;;;;;;5054493;28;20070;-38
2021/07/26 10:24:40;;;;;;;3.75;2.83;;;26.70;49.70;;;;;;5053876;28;20110;-37
2021/07/26 10:27:13;;;;;;;3.03;2.72;;;27.80;46.90;;;;;;5052506;28;20242;-39
2021/07/26 10:29:56;;;;;;;3.40;2.80;;;27.00;48.40;;;;;;5053322;28;20373;-38
2021/07/26 10:32:36;;;;;;;3.25;2.95;;;27.70;46.60;;;;;;5052528;28;20021;-36
2021/07/26 10:35:04;;;;;;;4.13;3.55;;;26.90;48.60;;;;;;5053648;28;20028;-37
2021/07/26 10:37:45;;;;;;;5.75;3.10;;;26.90;48.50;;;;;;5053708;28;20377;-36
2021/07/26 10:40:32;;;;;;;3.50;3.15;;;25.70;50.90;;;;;;5053910;28;20036;-37
2021/07/26 10:43:03;;;;;;;3.75;2.90;;;25.30;52.00;;;;;;5051953;28;20100;-36
2021/07/26 10:45:34;;;;;;;5.10;4.03;;;25.40;51.10;;;;;;5053114;28;20040;-36
2021/07/26 10:48:22;;;;;;;3.65;2.95;;;26.30;49.90;;;;;;5052441;28;20029;-37
2021/07/26 10:50:52;;;;;;;4.82;3.42;;;26.60;49.20;;;;;;5052833;28;20076;-36
2021/07/26 10:53:36;;;;;;;3.40;2.80;;;26.70;48.50;;;;;;5052597;28;20096;-36
2021/07/26 10:56:11;;;;;;;4.03;3.22;;;27.20;47.20;;;;;;5052946;28;20110;-36
2021/07/26 10:58:43;;;;;;;3.63;2.42;;;27.30;47.80;;;;;;5052655;28;20097;-36
2021/07/26 11:01:20;;;;;;;2.70;2.47;;;27.80;47.50;;;;;;5052727;28;20107;-36
2021/07/26 11:03:50;;;;;;;4.63;3.10;;;28.10;45.90;;;;;;5052913;28;20404;-36
2021/07/26 11:06:34;;;;;;;;;;;28.50;45.10;;;;;;5051655;28;20381;-36
2021/07/26 11:09:20;;;;;;;4.95;3.08;;;27.90;45.60;;;;;;5052750;28;19909;-36
2021/07/26 11:11:54;;;;;;;2.78;2.38;;;28.30;44.70;;;;;;5051075;28;20032;-36
2021/07/26 11:14:20;;;;;;;5.15;2.72;;;27.70;46.00;;;;;;5052454;28;20139;-36
2021/07/26 11:16:52;;;;;;;5.28;3.10;;;26.30;49.20;;;;;;5052630;28;20416;-38
2021/07/26 11:19:55;;;;;;;6.50;2.78;;;25.70;51.40;;;;;;5052715;28;20333;-36
2021/07/26 11:22:26;;;;;;;5.47;3.10;;;25.50;51.20;;;;;;5052147;28;20031;-37
2021/07/26 11:24:56;;;;;;;4.05;2.60;;;25.40;51.30;;;;;;5052260;28;20044;-36
2021/07/26 11:27:24;;;;;;;6.13;3.17;;;26.20;50.00;;;;;;5052103;28;20036;-36
2021/07/26 11:29:54;;;;;;;5.75;2.75;;;27.20;48.20;;;;;;5051916;28;20124;-36
2021/07/26 11:32:23;;;;;;;5.18;2.60;;;28.00;46.20;;;;;;5052281;28;20094;-36
2021/07/26 11:34:59;;;;;;;4.60;3.20;;;27.70;45.60;;;;;;5052057;28;20496;-36
2021/07/26 11:37:32;;;;;;;2.58;2.25;;;27.90;45.10;;;;;;5051938;28;20054;-36
2021/07/26 11:40:04;;;;;;;3.95;2.80;;;28.30;44.30;;;;;;5050714;28;20025;-36
2021/07/26 11:42:32;;;;;;;2.65;2.45;;;28.80;43.50;;;;;;5050951;28;20021;-36
2021/07/26 11:45:01;;;;;;;4.28;3.38;;;27.30;45.80;;;;;;5052251;28;20419;-36
2021/07/26 11:47:44;;;;;;;4.68;3.72;;;27.20;46.60;;;;;;5052294;28;20433;-36
2021/07/26 11:50:11;;;;;;;3.25;2.78;;;26.00;49.90;;;;;;5052232;28;20021;-36
2021/07/26 11:52:38;;;;;;;3.67;1.98;;;25.20;52.50;;;;;;5052000;28;20079;-37
2021/07/26 11:55:18;;;;;;;3.08;2.17;;;25.20;53.10;;;;;;5053198;28;20025;-40
2021/07/26 11:57:59;;;;;;;2.88;2.42;;;26.60;49.10;;;;;;5052775;28;20101;-36
2021/07/26 12:00:27;;;;;;;4.63;2.72;;;26.40;49.20;;;;;;5051433;28;20067;-37
2021/07/26 12:02:53;;;;;;;4.03;2.70;;;26.30;50.10;;;;;;5051511;28;20106;-36
2021/07/26 12:05:27;;;;;;;3.13;2.58;;;25.50;51.30;;;;;;5051160;28;20120;-36
2021/07/26 12:07:53;;;;;;;5.72;2.95;;;25.20;52.10;;;;;;5051513;28;20018;-36
2021/07/26 12:10:34;;;;;;;8.02;2.83;;;25.30;51.50;;;;;;5051147;28;20374;-37
2021/07/26 12:13:06;;;;;;;4.78;2.55;;;26.20;49.20;;;;;;5051049;28;20117;-36
2021/07/26 12:15:31;;;;;;;4.38;2.60;;;27.50;46.30;;;;;;5050757;28;20096;-36
2021/07/26 12:18:07;;;;;;;6.60;2.45;;;27.30;47.20;;;;;;5050996;28;20409;-36
2021/07/26 12:20:38;;;;;;;4.07;2.65;;;27.40;46.50;;;;;;5049947;28;20025;-37
2021/07/26 12:23:12;;;;;;;4.97;2.72;;;27.10;47.40;;;;;;5051038;28;20454;-36
2021/07/26 12:25:52;;;;;;;4.07;3.17;;;27.80;46.40;;;;;;5050660;28;20093;-36
2021/07/26 12:28:20;;;;;;;2.50;2.30;;;28.30;45.20;;;;;;5051719;28;20461;-37
2021/07/26 12:30:49;;;;;;;4.43;3.47;;;28.90;42.20;;;;;;5051281;28;20079;-36
2021/07/26 12:33:32;;;;;;;8.55;3.25;;;28.30;43.70;;;;;;5052039;28;20060;-36
2021/07/26 12:36:14;;;;;;;7.32;3.05;;;27.80;45.00;;;;;;5054610;28;20079;-37
2021/07/26 12:39:01;;;;;;;4.28;3.10;;;27.80;44.60;;;;;;5053093;28;20097;-36
2021/07/26 12:41:34;;;;;;;5.57;3.42;;;28.00;44.70;;;;;;5055083;28;20039;-36
2021/07/26 12:44:10;;;;;;;3.22;2.80;;;27.80;45.30;;;;;;5054869;28;20075;-36
2021/07/26 12:46:36;;;;;;;5.80;2.80;;;28.60;42.90;;;;;;5054688;28;20111;-36
2021/07/26 12:49:02;;;;;;;5.15;2.65;;;28.90;42.60;;;;;;5055300;28;20369;-36
2021/07/26 12:51:28;;;;;;;7.63;2.75;;;29.30;42.90;;;;;;5054941;28;20033;-36
2021/07/26 12:53:54;;;;;;;5.32;2.60;;;28.80;42.70;;;;;;5054616;28;20524;-36
2021/07/26 12:56:20;;;;;;;4.82;3.42;;;29.10;41.70;;;;;;5054285;28;20055;-36